Time;durP1;ratioP1;P1;durP2;ratioP2;P2;SDS_P1;SDS_P2;PMS_P1;PMS_P2;Temp;Humidity;BMP_temperature;BMP_pressure;BME280_temperature;BME280_humidity;BME280_pressure;Samples;Min_cycle;Max_cycle;Signal;HPM_P1;HPM_P2
2023/06/12 00:01:42;;;;;;;6.93;4.57;;;21.70;82.30;;;;;;5020720;28;20025;-69
2023/06/12 00:04:08;;;;;;;4.85;3.97;;;21.60;81.50;;;;;;5020721;28;20018;-69
2023/06/12 00:06:35;;;;;;;5.43;4.32;;;21.60;81.50;;;;;;5037592;28;20022;-69
2023/06/12 00:09:01;;;;;;;5.60;4.00;;;21.60;82.10;;;;;;5020393;28;20030;-69
2023/06/12 00:11:27;;;;;;;6.43;4.05;;;21.60;81.20;;;;;;5020392;28;20033;-69
2023/06/12 00:13:53;;;;;;;5.22;3.85;;;21.50;83.00;;;;;;5037558;28;20025;-69
2023/06/12 00:16:18;;;;;;;6.40;4.47;;;21.50;81.70;;;;;;5020176;28;20048;-69
2023/06/12 00:18:44;;;;;;;5.43;3.92;;;21.40;82.30;;;;;;5020057;28;20041;-69
2023/06/12 00:21:11;;;;;;;7.68;4.43;;;21.50;83.20;;;;;;5037502;28;20079;-69
2023/06/12 00:23:38;;;;;;;7.25;4.20;;;21.50;82.70;;;;;;5037294;28;20017;-69
2023/06/12 00:26:03;;;;;;;7.53;3.95;;;21.40;83.40;;;;;;5037121;28;20036;-69
2023/06/12 00:28:30;;;;;;;5.05;3.80;;;21.40;83.60;;;;;;5037339;28;20021;-69
2023/06/12 00:30:55;;;;;;;5.50;3.80;;;21.30;84.40;;;;;;5019970;28;20025;-69
2023/06/12 00:33:21;;;;;;;5.03;4.28;;;21.20;85.40;;;;;;5020399;28;20075;-69
2023/06/12 00:35:47;;;;;;;8.55;4.45;;;21.20;84.80;;;;;;5019841;28;20067;-69
2023/06/12 00:38:14;;;;;;;4.88;4.03;;;21.00;85.80;;;;;;5020706;28;20029;-69
2023/06/12 00:40:40;;;;;;;8.13;3.90;;;21.10;85.60;;;;;;5020562;28;20032;-69
2023/06/12 00:43:06;;;;;;;9.55;4.13;;;21.00;86.30;;;;;;5020084;28;20022;-69
2023/06/12 00:45:32;;;;;;;9.48;4.80;;;20.90;86.20;;;;;;5019725;28;20067;-69
2023/06/12 00:47:59;;;;;;;11.65;4.40;;;20.90;88.00;;;;;;5020041;28;20025;-69
2023/06/12 00:50:28;;;;;;;8.93;4.30;;;20.80;89.10;;;;;;5020250;28;20088;-69
2023/06/12 00:52:56;;;;;;;6.30;4.57;;;20.80;88.40;;;;;;5020032;28;20033;-69
2023/06/12 00:55:21;;;;;;;5.28;3.50;;;20.70;90.00;;;;;;5020146;28;20120;-69
2023/06/12 00:57:48;;;;;;;8.25;4.30;;;20.50;89.30;;;;;;5019627;28;20108;-69
2023/06/12 01:00:17;;;;;;;5.55;3.72;;;20.70;89.70;;;;;;5020062;28;20024;-69
2023/06/12 01:02:52;;;;;;;6.38;4.68;;;20.80;87.30;;;;;;5036992;28;20099;-69
2023/06/12 01:05:32;;;;;;;5.97;3.88;;;20.90;87.60;;;;;;5019638;28;20079;-69
2023/06/12 01:08:34;;;;;;;5.60;3.92;;;20.90;87.10;;;;;;5036848;28;20029;-69
2023/06/12 01:11:07;;;;;;;7.30;4.28;;;20.80;86.60;;;;;;5019806;28;20045;-69
2023/06/12 01:13:34;;;;;;;12.25;4.70;;;20.80;87.30;;;;;;5019685;28;20033;-69
2023/06/12 01:16:00;;;;;;;5.72;4.28;;;20.80;88.40;;;;;;5036728;28;20026;-68
2023/06/12 01:18:25;;;;;;;6.97;4.43;;;20.60;87.30;;;;;;5019591;28;20025;-69
2023/06/12 01:20:55;;;;;;;6.20;3.70;;;20.50;89.10;;;;;;5019703;28;20018;-69
2023/06/12 01:23:32;;;;;;;6.22;4.63;;;20.50;90.10;;;;;;5020538;28;20028;-69
2023/06/12 01:26:08;;;;;;;7.38;4.72;;;20.50;90.20;;;;;;5065025;22;20037;-69
2023/06/12 01:28:51;;;;;;;5.63;4.10;;;20.40;89.50;;;;;;5039663;28;20079;-69
2023/06/12 01:31:34;;;;;;;5.57;4.00;;;20.40;89.70;;;;;;5023262;28;20069;-69
2023/06/12 01:34:12;;;;;;;6.47;4.00;;;20.10;89.50;;;;;;5024065;28;20028;-69
2023/06/12 01:36:42;;;;;;;5.22;3.88;;;20.00;90.10;;;;;;5039733;28;20026;-69
2023/06/12 01:39:12;;;;;;;8.82;4.35;;;20.10;90.30;;;;;;5040266;28;20030;-69
2023/06/12 01:41:38;;;;;;;6.82;4.18;;;20.20;90.10;;;;;;5040709;28;20084;-70
2023/06/12 01:44:10;;;;;;;5.95;4.57;;;20.20;90.20;;;;;;5023076;28;20032;-70
2023/06/12 01:46:37;;;;;;;17.60;4.68;;;20.10;90.30;;;;;;5040216;28;20026;-70
2023/06/12 01:49:04;;;;;;;7.10;4.57;;;20.00;90.30;;;;;;5040666;28;20021;-70
2023/06/12 01:51:29;;;;;;;7.97;4.97;;;20.10;90.90;;;;;;5023167;28;20029;-70
2023/06/12 01:53:55;;;;;;;6.65;4.13;;;20.10;90.70;;;;;;5023136;28;20033;-70
2023/06/12 01:56:24;;;;;;;7.30;4.70;;;20.10;90.60;;;;;;5022641;28;20025;-70
2023/06/12 01:58:50;;;;;;;6.65;4.30;;;20.10;90.70;;;;;;5022591;28;20022;-69
2023/06/12 02:01:15;;;;;;;6.40;4.07;;;20.10;91.00;;;;;;5023095;28;20030;-70
2023/06/12 02:03:45;;;;;;;6.18;4.25;;;20.10;91.60;;;;;;5022578;28;20013;-70
2023/06/12 02:06:13;;;;;;;7.03;4.30;;;20.10;91.10;;;;;;5022547;28;20025;-70
2023/06/12 02:08:38;;;;;;;8.68;4.70;;;20.00;91.50;;;;;;5022560;28;20196;-70
2023/06/12 02:11:04;;;;;;;8.63;4.05;;;20.00;91.60;;;;;;5023301;28;20116;-70
2023/06/12 02:13:29;;;;;;;6.70;4.45;;;19.90;91.50;;;;;;5022629;28;20028;-70
2023/06/12 02:15:55;;;;;;;8.45;4.78;;;19.90;91.80;;;;;;5022659;28;20026;-70
2023/06/12 02:18:21;;;;;;;7.75;4.00;;;19.90;91.70;;;;;;5022280;28;20029;-70
2023/06/12 02:20:49;;;;;;;4.95;4.05;;;19.80;92.10;;;;;;5022297;28;20018;-70
2023/06/12 02:23:14;;;;;;;8.23;4.50;;;19.70;92.30;;;;;;5022355;28;20094;-70
2023/06/12 02:25:40;;;;;;;6.78;4.10;;;19.70;92.30;;;;;;5039494;28;20061;-70
2023/06/12 02:28:06;;;;;;;6.88;4.60;;;19.60;92.40;;;;;;5022172;28;20025;-70
2023/06/12 02:30:32;;;;;;;5.68;4.32;;;19.70;93.00;;;;;;5039543;28;20033;-70
2023/06/12 02:32:57;;;;;;;7.93;4.68;;;19.60;92.80;;;;;;5022398;28;20052;-70
2023/06/12 02:35:23;;;;;;;6.30;4.32;;;19.40;93.00;;;;;;5039233;28;20032;-69
2023/06/12 02:37:48;;;;;;;7.78;4.35;;;19.40;93.40;;;;;;5021811;28;20026;-70
2023/06/12 02:40:14;;;;;;;8.35;4.60;;;19.40;93.30;;;;;;5022040;28;20044;-70
2023/06/12 02:42:39;;;;;;;6.53;4.43;;;19.40;93.40;;;;;;5022154;28;20097;-70
2023/06/12 02:45:05;;;;;;;6.22;4.78;;;19.40;93.80;;;;;;5021911;28;20075;-69
2023/06/12 02:47:31;;;;;;;9.35;5.07;;;19.20;95.00;;;;;;5021833;28;20033;-70
2023/06/12 02:49:57;;;;;;;8.18;4.30;;;19.10;95.90;;;;;;5021766;28;20025;-70
2023/06/12 02:52:22;;;;;;;10.18;4.40;;;19.00;96.20;;;;;;5039250;28;20056;-70
2023/06/12 02:54:48;;;;;;;7.90;4.60;;;19.00;96.50;;;;;;5038888;28;20025;-69
2023/06/12 02:57:14;;;;;;;6.30;4.32;;;18.90;96.80;;;;;;5022000;28;20056;-69
2023/06/12 02:59:40;;;;;;;6.50;4.43;;;18.90;97.30;;;;;;5021536;28;20028;-69
2023/06/12 03:02:06;;;;;;;6.05;4.85;;;18.90;97.80;;;;;;5021550;28;20026;-70
2023/06/12 03:04:32;;;;;;;6.82;4.57;;;18.70;98.50;;;;;;5021994;28;20084;-69
2023/06/12 03:07:02;;;;;;;8.10;4.80;;;18.70;98.80;;;;;;5021598;28;20032;-69
2023/06/12 03:09:28;;;;;;;6.93;4.60;;;18.60;99.50;;;;;;5039048;28;20036;-70
2023/06/12 03:11:54;;;;;;;5.15;4.47;;;18.60;99.70;;;;;;5021610;28;20021;-69
2023/06/12 03:14:24;;;;;;;8.63;4.60;;;18.60;99.70;;;;;;5021231;28;20025;-70
2023/06/12 03:16:50;;;;;;;8.55;4.68;;;18.60;99.90;;;;;;5038995;28;20029;-69
2023/06/12 03:19:16;;;;;;;8.50;5.00;;;18.50;99.90;;;;;;5021222;28;20025;-70
2023/06/12 03:21:41;;;;;;;7.82;4.43;;;18.60;99.90;;;;;;5021550;28;20018;-70
2023/06/12 03:24:07;;;;;;;7.80;4.68;;;18.50;99.90;;;;;;5038768;28;20037;-70
2023/06/12 03:26:33;;;;;;;12.75;5.28;;;18.50;99.90;;;;;;5038802;28;20037;-70
2023/06/12 03:29:00;;;;;;;7.63;4.82;;;18.60;99.90;;;;;;5021342;28;20026;-70
2023/06/12 03:31:26;;;;;;;8.38;4.95;;;18.60;99.90;;;;;;5038527;28;20036;-70
2023/06/12 03:33:54;;;;;;;8.52;5.13;;;18.50;99.90;;;;;;5038461;28;20029;-69
2023/06/12 03:36:21;;;;;;;7.10;4.57;;;18.40;99.90;;;;;;5038243;28;20026;-70
2023/06/12 03:38:46;;;;;;;10.52;5.30;;;18.30;99.90;;;;;;5038237;28;20024;-70
2023/06/12 03:41:12;;;;;;;6.97;4.70;;;18.40;99.90;;;;;;5020845;28;20112;-70
2023/06/12 03:43:38;;;;;;;6.25;4.30;;;18.40;99.90;;;;;;5020863;28;20116;-71
2023/06/12 03:46:04;;;;;;;10.90;4.68;;;18.30;99.90;;;;;;5020419;28;20018;-70
2023/06/12 03:48:29;;;;;;;6.45;4.57;;;18.40;99.90;;;;;;5020637;28;20021;-69
2023/06/12 03:50:55;;;;;;;9.00;4.93;;;18.50;99.90;;;;;;5021392;28;20093;-69
2023/06/12 03:53:21;;;;;;;7.00;4.20;;;18.50;99.90;;;;;;5037989;28;20053;-69
2023/06/12 03:55:46;;;;;;;7.53;4.65;;;18.30;99.90;;;;;;5020467;28;20028;-69
2023/06/12 03:58:16;;;;;;;7.65;4.18;;;18.40;99.90;;;;;;5020578;28;20061;-70
2023/06/12 04:00:43;;;;;;;6.45;4.68;;;18.50;99.90;;;;;;5037995;28;20021;-70
2023/06/12 04:03:09;;;;;;;7.93;4.72;;;18.60;99.90;;;;;;5037833;28;20014;-70
2023/06/12 04:05:34;;;;;;;7.88;5.32;;;18.50;99.90;;;;;;5020386;28;20104;-69
2023/06/12 04:08:00;;;;;;;9.32;5.20;;;18.70;99.90;;;;;;5037910;28;20055;-69
2023/06/12 04:10:25;;;;;;;8.07;4.50;;;18.60;99.90;;;;;;5020684;28;20025;-69
2023/06/12 04:12:51;;;;;;;8.88;4.80;;;18.70;99.90;;;;;;5020143;28;20025;-69
2023/06/12 04:15:16;;;;;;;6.43;3.97;;;18.70;99.90;;;;;;5021265;28;20040;-70
2023/06/12 04:17:42;;;;;;;9.02;4.45;;;18.60;99.90;;;;;;5020178;28;20033;-70
2023/06/12 04:20:08;;;;;;;6.97;4.72;;;18.50;99.90;;;;;;5020507;28;20025;-70
2023/06/12 04:22:35;;;;;;;5.88;4.63;;;18.40;99.90;;;;;;5036600;28;20026;-70
2023/06/12 04:25:04;;;;;;;8.68;5.30;;;18.50;99.90;;;;;;5019924;28;20032;-70
2023/06/12 04:27:30;;;;;;;8.75;5.18;;;18.40;99.90;;;;;;5037748;28;20021;-70
2023/06/12 04:29:57;;;;;;;8.63;4.38;;;18.40;99.90;;;;;;5037579;28;20075;-70
2023/06/12 04:32:23;;;;;;;6.65;4.43;;;18.40;99.90;;;;;;5019992;28;20117;-70
2023/06/12 04:34:49;;;;;;;7.05;4.88;;;18.50;99.90;;;;;;5019950;28;20021;-70
2023/06/12 04:37:18;;;;;;;7.80;4.63;;;18.40;99.90;;;;;;5019726;28;20021;-70
2023/06/12 04:39:45;;;;;;;6.70;4.50;;;18.60;99.90;;;;;;5037128;28;20021;-70
2023/06/12 04:42:10;;;;;;;6.85;4.50;;;18.50;99.90;;;;;;5037418;28;20096;-70
2023/06/12 04:44:37;;;;;;;7.70;5.03;;;18.50;99.90;;;;;;5019833;28;20063;-70
2023/06/12 04:47:08;;;;;;;10.50;5.32;;;18.60;99.90;;;;;;5019796;28;20112;-70
2023/06/12 04:49:35;;;;;;;7.10;5.18;;;18.60;99.90;;;;;;5037406;28;20096;-70
2023/06/12 04:52:03;;;;;;;7.63;4.88;;;18.70;99.90;;;;;;5020656;28;20033;-70
2023/06/12 04:54:35;;;;;;;11.57;4.97;;;18.70;99.90;;;;;;5020410;28;20025;-70
2023/06/12 04:57:04;;;;;;;7.97;5.22;;;18.70;99.90;;;;;;5019847;28;20029;-70
2023/06/12 04:59:30;;;;;;;7.70;5.22;;;18.70;99.90;;;;;;5019424;28;20026;-70
2023/06/12 05:01:58;;;;;;;6.75;4.95;;;18.50;99.90;;;;;;5019900;28;20109;-70
2023/06/12 05:04:24;;;;;;;8.43;5.00;;;18.50;99.90;;;;;;5019956;28;20022;-70
2023/06/12 05:06:51;;;;;;;11.23;5.03;;;18.40;99.90;;;;;;5019536;28;20022;-70
2023/06/12 05:09:17;;;;;;;10.93;4.70;;;18.40;99.90;;;;;;5019848;28;20025;-70
2023/06/12 05:11:42;;;;;;;9.25;5.03;;;18.60;99.90;;;;;;5019648;28;20026;-70
2023/06/12 05:14:08;;;;;;;6.20;4.72;;;18.70;99.90;;;;;;5019507;28;20029;-70
2023/06/12 05:16:34;;;;;;;10.25;5.15;;;18.80;99.90;;;;;;5019437;28;20024;-70
2023/06/12 05:18:59;;;;;;;11.77;5.50;;;18.80;99.90;;;;;;5019330;28;20029;-70
2023/06/12 05:21:25;;;;;;;10.88;5.07;;;19.00;99.90;;;;;;5037150;28;20029;-70
2023/06/12 05:23:51;;;;;;;9.45;5.05;;;19.00;99.90;;;;;;5019373;28;20028;-70
2023/06/12 05:26:16;;;;;;;10.43;5.20;;;19.10;99.90;;;;;;5036602;28;20108;-70
2023/06/12 05:28:42;;;;;;;10.35;4.90;;;19.20;99.90;;;;;;5019332;28;20116;-70
2023/06/12 05:31:08;;;;;;;8.88;5.00;;;19.40;99.90;;;;;;5019376;28;20033;-70
2023/06/12 05:33:34;;;;;;;8.13;4.78;;;19.40;99.90;;;;;;5036671;28;20056;-70
2023/06/12 05:35:59;;;;;;;8.88;4.72;;;19.40;99.90;;;;;;5019283;28;20116;-70
2023/06/12 05:38:25;;;;;;;9.40;5.43;;;19.50;99.90;;;;;;5036988;28;20072;-70
2023/06/12 05:40:52;;;;;;;11.43;4.80;;;19.50;99.90;;;;;;5019518;28;20018;-70
2023/06/12 05:43:18;;;;;;;8.95;5.00;;;19.50;99.90;;;;;;5036622;28;20049;-70
2023/06/12 05:45:43;;;;;;;8.50;5.10;;;19.50;99.90;;;;;;5019177;28;20049;-70
2023/06/12 05:48:09;;;;;;;8.15;5.07;;;19.60;99.90;;;;;;5019486;28;20060;-70
2023/06/12 05:50:35;;;;;;;6.75;5.15;;;19.40;99.90;;;;;;5019478;28;20071;-70
2023/06/12 05:53:01;;;;;;;7.65;5.47;;;19.60;99.90;;;;;;5019581;28;20022;-70
2023/06/12 05:55:27;;;;;;;8.73;5.20;;;19.70;99.90;;;;;;5019034;28;20034;-70
2023/06/12 05:57:52;;;;;;;7.43;5.13;;;19.80;99.90;;;;;;5036432;28;20044;-70
2023/06/12 06:00:18;;;;;;;7.80;5.68;;;19.80;99.90;;;;;;5019082;28;20067;-70
2023/06/12 06:02:45;;;;;;;8.98;5.05;;;19.80;99.90;;;;;;5019400;28;20018;-70
2023/06/12 06:05:11;;;;;;;7.45;5.57;;;19.80;99.90;;;;;;5036408;28;20025;-70
2023/06/12 06:07:36;;;;;;;7.15;4.47;;;19.70;99.90;;;;;;5019338;28;20026;-70
2023/06/12 06:10:04;;;;;;;10.85;5.55;;;19.70;99.90;;;;;;5020314;28;20093;-70
2023/06/12 06:12:30;;;;;;;9.57;5.47;;;19.70;99.90;;;;;;5022412;28;20033;-70
2023/06/12 06:14:55;;;;;;;10.43;4.85;;;19.90;99.90;;;;;;5022793;28;20026;-70
2023/06/12 06:17:21;;;;;;;7.32;5.00;;;20.10;99.90;;;;;;5022531;28;20026;-70
2023/06/12 06:19:47;;;;;;;7.32;5.28;;;20.20;99.90;;;;;;5022402;28;20032;-70
2023/06/12 06:22:14;;;;;;;10.43;4.95;;;20.30;99.90;;;;;;5022323;28;20071;-70
2023/06/12 06:24:41;;;;;;;11.63;5.55;;;20.40;99.90;;;;;;5022305;28;20029;-70
2023/06/12 06:27:08;;;;;;;7.93;5.40;;;20.50;99.90;;;;;;5038679;28;20052;-70
2023/06/12 06:29:33;;;;;;;8.35;5.60;;;20.60;99.90;;;;;;5023014;28;20049;-70
2023/06/12 06:31:59;;;;;;;11.80;5.90;;;20.70;99.90;;;;;;5022058;28;20026;-70
2023/06/12 06:34:25;;;;;;;10.55;5.65;;;20.80;99.90;;;;;;5022059;28;20068;-70
2023/06/12 06:36:51;;;;;;;9.18;5.43;;;20.90;99.90;;;;;;5039746;28;20108;-70
2023/06/12 06:39:16;;;;;;;11.68;5.10;;;21.00;99.90;;;;;;5022265;28;20109;-70
2023/06/12 06:41:42;;;;;;;9.27;5.43;;;21.00;99.90;;;;;;5021981;28;20021;-70
2023/06/12 06:44:07;;;;;;;14.73;6.55;;;21.10;99.90;;;;;;5022106;28;20045;-71
2023/06/12 06:46:33;;;;;;;8.27;5.18;;;21.20;99.90;;;;;;5039321;28;20025;-70
2023/06/12 06:48:58;;;;;;;8.57;5.15;;;21.30;99.90;;;;;;5021851;28;20021;-70
2023/06/12 06:51:24;;;;;;;8.93;5.18;;;21.40;99.90;;;;;;5039188;28;20078;-70
2023/06/12 06:53:50;;;;;;;7.32;4.75;;;21.40;99.90;;;;;;5039331;28;20065;-69
2023/06/12 06:56:16;;;;;;;11.68;5.50;;;21.50;99.90;;;;;;5022635;28;20022;-68
2023/06/12 06:58:41;;;;;;;7.82;4.93;;;21.50;99.90;;;;;;5021388;28;20093;-70
2023/06/12 07:01:07;;;;;;;8.57;5.18;;;21.60;99.90;;;;;;5039265;28;20029;-70
2023/06/12 07:03:33;;;;;;;10.38;5.40;;;21.70;99.90;;;;;;5021797;28;20028;-70
2023/06/12 07:05:58;;;;;;;8.07;5.10;;;21.80;99.90;;;;;;5021799;28;20032;-70
2023/06/12 07:08:24;;;;;;;6.95;5.05;;;21.90;99.90;;;;;;5039202;28;20033;-70
2023/06/12 07:10:50;;;;;;;6.57;4.95;;;22.00;99.90;;;;;;5039189;28;20044;-70
2023/06/12 07:13:15;;;;;;;11.38;6.13;;;22.00;99.90;;;;;;5021488;28;20025;-70
2023/06/12 07:15:41;;;;;;;9.85;5.55;;;22.10;99.90;;;;;;5022306;28;20049;-70
2023/06/12 07:18:07;;;;;;;9.02;5.15;;;22.20;99.90;;;;;;5021427;28;20022;-70
2023/06/12 07:20:33;;;;;;;7.03;5.63;;;22.30;99.90;;;;;;5022187;28;20041;-70
2023/06/12 07:22:58;;;;;;;9.25;5.22;;;22.40;99.90;;;;;;5020592;28;20075;-70
2023/06/12 07:25:24;;;;;;;7.93;5.10;;;22.40;99.90;;;;;;5045453;22;20029;-68
2023/06/12 07:27:49;;;;;;;9.18;5.22;;;22.50;99.90;;;;;;5021144;28;20044;-68
2023/06/12 07:30:15;;;;;;;9.85;5.22;;;22.70;99.90;;;;;;5037621;28;20045;-68
2023/06/12 07:32:40;;;;;;;6.60;5.03;;;22.70;99.90;;;;;;5020976;28;20018;-68
2023/06/12 07:35:06;;;;;;;14.85;5.50;;;22.90;99.90;;;;;;5038625;28;20112;-68
2023/06/12 07:37:35;;;;;;;5.93;4.80;;;23.00;99.90;;;;;;5018518;28;20033;-68
2023/06/12 07:40:05;;;;;;;8.18;5.38;;;23.10;99.90;;;;;;5017651;28;20060;-68
2023/06/12 07:42:30;;;;;;;6.70;4.90;;;23.10;99.90;;;;;;5017792;28;20113;-68
2023/06/12 07:44:56;;;;;;;6.05;4.70;;;23.10;99.90;;;;;;5017585;28;20037;-68
2023/06/12 07:47:21;;;;;;;8.52;4.80;;;23.20;99.90;;;;;;5018498;28;20048;-68
2023/06/12 07:49:47;;;;;;;9.25;5.13;;;23.20;99.90;;;;;;5017465;28;20115;-68
2023/06/12 07:52:12;;;;;;;7.85;5.00;;;23.30;99.90;;;;;;5017418;28;20094;-68
2023/06/12 07:54:38;;;;;;;7.50;5.00;;;23.60;99.90;;;;;;5017623;28;20026;-69
2023/06/12 07:57:06;;;;;;;7.63;4.13;;;23.90;99.90;;;;;;5017327;28;20026;-69
2023/06/12 07:59:31;;;;;;;7.97;5.38;;;23.90;99.90;;;;;;5017091;28;20057;-69
2023/06/12 08:01:57;;;;;;;7.38;4.53;;;24.10;99.90;;;;;;5018075;28;20033;-69
2023/06/12 08:04:22;;;;;;;5.88;4.70;;;24.30;99.90;;;;;;5018051;28;20025;-69
2023/06/12 08:06:48;;;;;;;6.53;4.90;;;24.30;99.90;;;;;;5017109;28;20075;-69
2023/06/12 08:09:14;;;;;;;6.35;4.85;;;24.30;99.90;;;;;;5017905;28;20033;-69
2023/06/12 08:11:40;;;;;;;5.85;4.80;;;24.30;99.90;;;;;;5017006;28;20037;-69
2023/06/12 08:14:06;;;;;;;5.47;4.53;;;24.30;99.90;;;;;;5017903;28;20018;-69
2023/06/12 08:16:32;;;;;;;7.20;4.95;;;24.60;99.90;;;;;;5017803;28;20030;-69
2023/06/12 08:18:58;;;;;;;6.40;5.22;;;24.60;99.90;;;;;;5017745;28;20022;-69
2023/06/12 08:21:25;;;;;;;9.93;4.90;;;24.80;99.90;;;;;;5016873;28;20024;-69
2023/06/12 08:23:51;;;;;;;8.55;4.40;;;24.60;99.90;;;;;;5017781;28;20072;-69
2023/06/12 08:26:17;;;;;;;8.13;5.13;;;24.90;99.90;;;;;;5017421;28;20022;-69
2023/06/12 08:28:43;;;;;;;6.10;5.00;;;25.10;99.90;;;;;;5016754;28;20022;-69
2023/06/12 08:31:08;;;;;;;7.80;5.00;;;25.20;99.90;;;;;;5001229;28;20116;-69
2023/06/12 08:33:34;;;;;;;7.35;4.35;;;25.10;99.90;;;;;;5016555;28;20027;-70
2023/06/12 08:36:00;;;;;;;8.88;5.15;;;25.10;99.90;;;;;;5017180;28;20029;-69
2023/06/12 08:38:26;;;;;;;5.82;4.93;;;25.30;99.90;;;;;;5016714;28;20033;-70
2023/06/12 08:40:54;;;;;;;11.75;5.20;;;25.40;98.90;;;;;;5017505;28;20030;-70
2023/06/12 08:43:20;;;;;;;6.45;4.65;;;25.60;99.40;;;;;;5016574;28;20108;-70
2023/06/12 08:45:47;;;;;;;10.02;4.70;;;25.70;97.90;;;;;;5016726;28;20065;-70
2023/06/12 08:48:16;;;;;;;9.57;5.45;;;25.90;96.60;;;;;;5016645;28;20093;-70
2023/06/12 08:50:43;;;;;;;7.75;4.85;;;26.00;97.40;;;;;;5017472;28;20029;-69
2023/06/12 08:53:08;;;;;;;9.50;4.60;;;26.20;96.10;;;;;;5016514;28;20030;-69
2023/06/12 08:55:39;;;;;;;10.85;4.78;;;26.10;93.80;;;;;;5016231;28;20022;-69
2023/06/12 08:58:06;;;;;;;6.68;4.85;;;25.80;93.90;;;;;;5017180;28;20036;-69
2023/06/12 09:00:31;;;;;;;5.45;4.45;;;25.70;93.60;;;;;;5016449;28;20049;-69
2023/06/12 09:02:58;;;;;;;8.60;4.80;;;25.60;94.30;;;;;;5016326;28;20026;-69
2023/06/12 09:05:29;;;;;;;9.02;4.88;;;25.80;95.60;;;;;;5016182;28;20041;-69
2023/06/12 09:07:57;;;;;;;7.78;4.78;;;26.40;94.10;;;;;;5016420;28;20022;-69
2023/06/12 09:10:23;;;;;;;7.28;5.22;;;26.50;92.40;;;;;;5016369;28;20025;-69
2023/06/12 09:12:53;;;;;;;5.43;4.85;;;26.40;93.00;;;;;;5016249;28;20022;-69
2023/06/12 09:15:20;;;;;;;6.35;4.63;;;26.80;92.30;;;;;;5017500;28;20025;-69
2023/06/12 09:17:47;;;;;;;6.43;4.93;;;26.70;91.60;;;;;;5017185;28;20018;-69
2023/06/12 09:20:24;;;;;;;6.10;4.70;;;26.90;91.30;;;;;;5016162;28;20168;-69
2023/06/12 09:22:53;;;;;;;6.85;5.13;;;26.90;91.10;;;;;;5017453;28;20116;-69
2023/06/12 09:25:20;;;;;;;5.00;4.45;;;27.20;90.00;;;;;;5016748;28;20163;-69
2023/06/12 09:27:46;;;;;;;4.88;4.38;;;27.00;87.00;;;;;;5017317;28;20022;-69
2023/06/12 09:30:12;;;;;;;6.50;5.22;;;27.10;88.10;;;;;;5016998;28;20022;-69
2023/06/12 09:32:41;;;;;;;7.00;5.32;;;26.90;87.60;;;;;;5017264;28;20022;-69
2023/06/12 09:35:07;;;;;;;10.65;5.32;;;26.60;87.50;;;;;;5016833;28;20030;-69
2023/06/12 09:37:32;;;;;;;6.45;4.93;;;26.80;85.90;;;;;;5016051;28;20057;-69
2023/06/12 09:40:13;;;;;;;6.55;4.85;;;27.30;85.00;;;;;;5015939;28;20054;-69
2023/06/12 09:42:39;;;;;;;10.23;5.15;;;27.40;84.00;;;;;;5016018;28;20045;-69
2023/06/12 09:45:20;;;;;;;6.10;4.88;;;27.50;83.20;;;;;;5017416;28;20030;-69
2023/06/12 09:47:51;;;;;;;9.40;4.88;;;27.70;84.00;;;;;;5019710;28;20021;-69
2023/06/12 09:50:22;;;;;;;5.82;4.72;;;27.70;82.40;;;;;;5019763;28;20026;-69
2023/06/12 09:52:49;;;;;;;6.63;4.95;;;27.60;82.90;;;;;;5020579;28;20018;-69
2023/06/12 09:55:16;;;;;;;6.70;5.15;;;27.70;80.00;;;;;;5019579;28;20026;-69
2023/06/12 09:57:43;;;;;;;8.35;5.53;;;27.50;79.40;;;;;;5019691;28;20029;-69
2023/06/12 10:00:11;;;;;;;7.72;5.38;;;27.30;79.50;;;;;;5020365;28;20041;-69
2023/06/12 10:02:44;;;;;;;7.65;4.90;;;27.80;80.80;;;;;;5020401;28;20014;-69
2023/06/12 10:05:20;;;;;;;8.65;5.00;;;28.00;81.40;;;;;;5019251;28;20058;-69
2023/06/12 10:07:47;;;;;;;7.63;5.38;;;28.10;79.20;;;;;;5003051;28;20018;-70
2023/06/12 10:10:14;;;;;;;5.68;4.95;;;28.00;76.90;;;;;;5019211;28;20030;-69
2023/06/12 10:12:42;;;;;;;6.65;5.68;;;28.10;75.30;;;;;;5019304;28;20030;-69
2023/06/12 10:15:08;;;;;;;7.38;4.82;;;28.10;74.10;;;;;;5019069;28;20022;-69
2023/06/12 10:17:35;;;;;;;7.10;4.97;;;28.20;74.80;;;;;;5019151;28;20026;-69
2023/06/12 10:20:06;;;;;;;5.78;5.07;;;28.10;74.70;;;;;;5019967;28;20025;-69
2023/06/12 10:22:32;;;;;;;7.50;5.65;;;27.90;73.40;;;;;;5018971;28;20022;-70
2023/06/12 10:24:58;;;;;;;9.65;5.18;;;28.20;73.80;;;;;;5020205;28;20113;-70
2023/06/12 10:27:24;;;;;;;11.32;5.47;;;28.40;75.20;;;;;;5018694;28;20045;-70
2023/06/12 10:29:58;;;;;;;6.93;5.40;;;28.80;74.60;;;;;;5019482;28;20033;-70
2023/06/12 10:32:24;;;;;;;9.25;5.90;;;28.80;74.50;;;;;;5018883;28;20041;-70
2023/06/12 10:34:54;;;;;;;7.57;5.53;;;28.60;72.60;;;;;;5018844;28;20117;-69
2023/06/12 10:37:29;;;;;;;10.48;6.00;;;28.80;72.50;;;;;;5019141;28;20030;-69
2023/06/12 10:40:11;;;;;;;10.38;5.38;;;28.70;75.70;;;;;;5019425;28;20022;-69
2023/06/12 10:42:40;;;;;;;9.43;5.15;;;29.20;76.30;;;;;;5018766;28;20022;-70
2023/06/12 10:45:13;;;;;;;10.82;5.72;;;29.30;70.80;;;;;;5018952;28;20022;-70
2023/06/12 10:47:39;;;;;;;7.72;5.60;;;29.20;70.90;;;;;;5019482;28;20104;-69
2023/06/12 10:50:05;;;;;;;6.13;4.97;;;29.60;70.30;;;;;;5019316;28;20065;-70
2023/06/12 10:52:31;;;;;;;7.97;5.80;;;29.50;70.20;;;;;;5019265;28;20122;-70
2023/06/12 10:55:15;;;;;;;8.95;5.10;;;29.20;69.80;;;;;;5019330;28;20057;-70
2023/06/12 10:57:51;;;;;;;8.43;6.15;;;29.10;70.50;;;;;;5017778;28;20065;-70
2023/06/12 11:00:18;;;;;;;8.88;6.05;;;29.10;73.10;;;;;;5019236;28;20025;-70
2023/06/12 11:02:47;;;;;;;8.30;5.28;;;29.50;72.30;;;;;;5019107;28;20025;-70
2023/06/12 11:05:17;;;;;;;8.35;5.80;;;29.70;71.40;;;;;;5018246;28;20026;-70
2023/06/12 11:07:42;;;;;;;6.07;5.50;;;29.70;71.80;;;;;;5002010;28;20026;-70
2023/06/12 11:10:09;;;;;;;7.60;5.45;;;29.60;70.70;;;;;;5018244;28;20033;-69
2023/06/12 11:12:34;;;;;;;8.95;5.60;;;29.20;70.40;;;;;;5018354;28;20118;-70
2023/06/12 11:15:00;;;;;;;6.50;5.15;;;29.30;70.80;;;;;;5018217;28;20091;-70
2023/06/12 11:17:28;;;;;;;6.28;5.03;;;29.80;70.50;;;;;;5017967;28;20053;-70
2023/06/12 11:20:00;;;;;;;7.75;5.53;;;30.00;68.10;;;;;;5018723;28;20029;-70
2023/06/12 11:22:26;;;;;;;7.97;5.30;;;29.80;69.30;;;;;;5018814;28;20033;-70
2023/06/12 11:24:59;;;;;;;8.38;5.50;;;29.90;70.40;;;;;;5017878;28;20018;-70
2023/06/12 11:27:25;;;;;;;11.15;5.85;;;29.80;70.30;;;;;;5017886;28;20137;-71
2023/06/12 11:29:51;;;;;;;9.98;5.97;;;30.10;70.10;;;;;;5017790;28;20061;-72
2023/06/12 11:32:17;;;;;;;6.50;5.43;;;29.90;67.90;;;;;;5017794;28;20045;-71
2023/06/12 11:34:42;;;;;;;5.95;5.35;;;29.80;69.60;;;;;;5017661;28;20109;-72
2023/06/12 11:37:16;;;;;;;12.95;6.03;;;30.20;69.80;;;;;;5017585;28;20029;-72
2023/06/12 11:39:43;;;;;;;9.32;5.80;;;30.70;70.20;;;;;;5017613;28;20088;-71
2023/06/12 11:42:10;;;;;;;7.55;5.38;;;30.70;67.10;;;;;;5018392;28;20020;-71
2023/06/12 11:44:36;;;;;;;7.38;5.55;;;31.20;68.00;;;;;;5017643;28;20036;-71
2023/06/12 11:47:02;;;;;;;12.45;5.40;;;31.40;67.00;;;;;;5017660;28;20022;-71
2023/06/12 11:49:31;;;;;;;7.00;5.85;;;31.20;66.40;;;;;;5017368;28;20129;-69
2023/06/12 11:51:58;;;;;;;7.32;5.57;;;31.00;66.90;;;;;;5017313;28;20062;-70
2023/06/12 11:54:24;;;;;;;6.53;5.43;;;31.00;65.60;;;;;;5018451;28;20026;-70
2023/06/12 11:56:50;;;;;;;7.97;5.63;;;30.80;66.50;;;;;;5017274;28;20068;-70
2023/06/12 11:59:16;;;;;;;9.63;5.38;;;30.40;65.90;;;;;;5017134;28;20026;-70
2023/06/12 12:01:45;;;;;;;7.47;5.70;;;30.40;67.10;;;;;;5018175;28;20026;-70
2023/06/12 12:04:11;;;;;;;8.23;5.80;;;30.30;69.00;;;;;;5017436;28;20029;-69
2023/06/12 12:07:06;;;;;;;7.63;5.78;;;30.30;68.40;;;;;;5017387;28;20029;-69
2023/06/12 12:09:32;;;;;;;11.00;6.63;;;30.60;70.00;;;;;;4919990;29;20044;-70
2023/06/12 12:12:08;;;;;;;7.22;5.85;;;31.00;68.60;;;;;;4920187;29;20032;-70
2023/06/12 12:14:33;;;;;;;6.22;5.53;;;30.90;66.40;;;;;;4920255;29;20036;-70
2023/06/12 12:17:04;;;;;;;6.82;5.78;;;30.50;66.70;;;;;;4919597;29;20044;-70
2023/06/12 12:19:31;;;;;;;5.78;5.18;;;30.10;67.90;;;;;;4919790;29;20036;-70
2023/06/12 12:21:57;;;;;;;11.40;5.88;;;30.10;67.10;;;;;;4919634;29;20031;-70
2023/06/12 12:24:24;;;;;;;7.18;5.55;;;29.60;67.20;;;;;;4919920;29;20028;-69
2023/06/12 12:26:52;;;;;;;12.77;5.55;;;29.70;66.90;;;;;;4919469;29;20103;-69
2023/06/12 12:29:18;;;;;;;11.93;5.80;;;29.90;66.50;;;;;;4919603;29;20059;-70
2023/06/12 12:31:44;;;;;;;12.48;5.05;;;30.30;68.30;;;;;;4919550;29;20084;-70
2023/06/12 12:34:09;;;;;;;10.63;5.50;;;30.40;66.40;;;;;;4904556;29;20036;-70
2023/06/12 12:36:38;;;;;;;8.18;6.15;;;30.20;65.90;;;;;;4919400;29;20028;-70
2023/06/12 12:39:04;;;;;;;6.95;5.60;;;30.20;65.80;;;;;;4919236;29;20090;-70
2023/06/12 12:41:29;;;;;;;7.68;5.75;;;30.40;64.30;;;;;;4919713;29;20111;-70
2023/06/12 12:43:55;;;;;;;8.20;5.22;;;30.10;65.00;;;;;;4919384;29;20028;-70
2023/06/12 12:46:24;;;;;;;9.15;5.15;;;30.10;65.70;;;;;;4986782;28;20038;-70